Time;durP1;ratioP1;P1;durP2;ratioP2;P2;SDS_P1;SDS_P2;PMS_P1;PMS_P2;Temp;Humidity;BMP_temperature;BMP_pressure;BME280_temperature;BME280_humidity;BME280_pressure;Samples;Min_cycle;Max_cycle;Signal;HPM_P1;HPM_P2
2021/04/22 00:01:42;;;;;;;12.57;9.50;;;;;;;5.29;92.59;95596.44;5049284;28;20234;-70
2021/04/22 00:04:09;;;;;;;8.87;7.97;;;;;;;5.45;92.03;95591.31;5031955;28;20311;-70
2021/04/22 00:06:36;;;;;;;9.37;8.37;;;;;;;5.61;91.91;95580.97;5065386;28;20679;-70
2021/04/22 00:09:04;;;;;;;10.30;9.30;;;;;;;5.71;91.69;95580.84;5063179;28;20691;-70
2021/04/22 00:11:31;;;;;;;9.23;8.37;;;;;;;5.98;91.01;95567.59;5060222;28;20252;-70
2021/04/22 00:13:58;;;;;;;10.77;9.70;;;;;;;6.18;89.80;95559.47;5064414;28;20226;-71
2021/04/22 00:16:25;;;;;;;9.10;8.33;;;;;;;6.35;88.88;95561.16;5058826;28;20579;-70
2021/04/22 00:18:52;;;;;;;8.23;7.53;;;;;;;6.55;88.31;95554.63;5040320;28;20222;-70
2021/04/22 00:21:19;;;;;;;10.70;9.67;;;;;;;6.71;87.61;95548.59;5058581;28;20284;-70
2021/04/22 00:23:46;;;;;;;10.27;9.33;;;;;;;6.89;86.74;95526.66;5045204;28;20242;-71
2021/04/22 00:26:13;;;;;;;7.90;7.30;;;;;;;7.05;86.21;95543.22;5046759;28;20703;-70
2021/04/22 00:28:40;;;;;;;8.47;7.60;;;;;;;7.16;85.94;95538.59;5045760;28;20219;-70
2021/04/22 00:31:08;;;;;;;8.40;7.83;;;;;;;7.21;85.85;95531.03;5033037;28;20760;-70
2021/04/22 00:33:35;;;;;;;6.37;5.87;;;;;;;7.31;86.26;95536.91;5044987;28;20255;-70
2021/04/22 00:36:03;;;;;;;7.37;6.77;;;;;;;7.42;86.91;95528.72;5026761;28;20309;-70
2021/04/22 00:38:30;;;;;;;8.37;7.67;;;;;;;7.44;86.64;95532.00;5030591;28;20262;-70
2021/04/22 00:40:58;;;;;;;7.90;7.17;;;;;;;7.49;87.06;95528.84;5074928;28;20311;-69
2021/04/22 00:43:25;;;;;;;6.67;6.17;;;;;;;7.47;86.90;95526.41;5049194;28;20220;-70
2021/04/22 00:45:52;;;;;;;6.47;5.97;;;;;;;7.48;86.99;95527.22;5059676;28;20247;-70
2021/04/22 00:48:21;;;;;;;7.07;6.37;;;;;;;7.46;87.34;95516.88;5042991;28;20267;-70
2021/04/22 00:50:57;;;;;;;6.13;5.77;;;;;;;7.64;87.44;95509.63;5033555;28;20226;-70
2021/04/22 00:53:25;;;;;;;7.63;6.97;;;;;;;7.81;85.59;95501.69;5050109;28;20283;-70
2021/04/22 00:55:55;;;;;;;7.47;6.97;;;;;;;7.94;85.05;95512.44;5029451;28;20290;-70
2021/04/22 00:58:23;;;;;;;8.57;7.40;;;;;;;7.84;85.84;95517.09;5062752;28;20681;-70
2021/04/22 01:00:54;;;;;;;8.30;7.53;;;;;;;7.61;87.33;95517.84;5048064;28;20241;-71
2021/04/22 01:03:22;;;;;;;8.30;7.57;;;;;;;7.45;87.81;95523.13;5037586;28;20244;-70
2021/04/22 01:05:51;;;;;;;8.47;7.73;;;;;;;7.39;87.50;95523.78;5040013;28;20253;-70
2021/04/22 01:08:19;;;;;;;8.47;7.80;;;;;;;7.33;88.22;95524.47;5037581;28;20221;-70
2021/04/22 01:10:46;;;;;;;8.50;7.80;;;;;;;7.11;88.75;95526.78;5042342;28;20352;-71
2021/04/22 01:13:13;;;;;;;9.07;8.37;;;;;;;6.92;88.65;95528.94;5062238;28;20254;-70
2021/04/22 01:15:40;;;;;;;8.13;7.53;;;;;;;6.84;88.37;95530.56;5044585;28;20312;-70
2021/04/22 01:18:08;;;;;;;10.30;9.43;;;;;;;7.02;88.59;95540.88;5053266;28;20238;-70
2021/04/22 01:20:38;;;;;;;9.27;8.37;;;;;;;6.88;89.13;95535.50;5043776;28;20261;-70
2021/04/22 01:23:07;;;;;;;10.07;9.27;;;;;;;6.75;89.24;95530.72;5061118;28;20675;-70
2021/04/22 01:25:36;;;;;;;10.97;9.13;;;;;;;6.68;89.65;95527.97;5063285;28;20265;-70
2021/04/22 01:28:05;;;;;;;10.73;9.77;;;;;;;6.55;90.11;95535.47;5053537;28;20276;-70
2021/04/22 01:30:35;;;;;;;11.47;10.47;;;;;;;6.53;90.02;95533.00;5050026;28;20247;-71
2021/04/22 01:33:03;;;;;;;11.47;10.33;;;;;;;6.42;90.06;95537.75;5072973;28;20231;-69
2021/04/22 01:35:33;;;;;;;11.77;10.57;;;;;;;6.36;90.21;95541.81;5050696;28;20231;-69
2021/04/22 01:38:01;;;;;;;12.03;11.03;;;;;;;6.38;90.33;95550.34;5057939;28;20231;-69
2021/04/22 01:40:30;;;;;;;11.37;10.37;;;;;;;6.51;89.70;95542.84;5053950;28;20243;-70
2021/04/22 01:42:57;;;;;;;10.50;9.57;;;;;;;6.53;89.22;95548.75;5049989;28;20297;-70
2021/04/22 01:45:24;;;;;;;13.20;11.93;;;;;;;6.51;88.98;95558.56;5046669;28;20783;-70
2021/04/22 01:47:52;;;;;;;10.00;9.13;;;;;;;6.42;89.45;95570.03;5066908;28;20230;-71
2021/04/22 01:50:22;;;;;;;11.80;10.80;;;;;;;6.22;90.30;95561.63;5064928;28;20222;-70
2021/04/22 01:52:49;;;;;;;10.43;9.53;;;;;;;6.12;90.79;95570.56;5053574;28;20230;-70
2021/04/22 01:55:20;;;;;;;12.03;10.87;;;;;;;6.15;91.14;95565.03;5065114;28;20237;-70
2021/04/22 01:57:50;;;;;;;12.90;11.60;;;;;;;6.16;91.81;95567.50;5051078;28;20227;-71
2021/04/22 02:00:20;;;;;;;14.23;13.13;;;;;;;6.19;92.21;95566.34;5046633;28;20233;-71
2021/04/22 02:02:47;;;;;;;12.50;11.27;;;;;;;6.20;91.78;95565.34;5058080;28;20222;-70
2021/04/22 02:05:14;;;;;;;11.37;10.30;;;;;;;6.16;91.92;95567.50;5059431;28;20222;-70
2021/04/22 02:07:41;;;;;;;12.07;10.60;;;;;;;6.02;92.19;95564.63;5049605;28;20245;-70
2021/04/22 02:10:09;;;;;;;11.30;10.17;;;;;;;6.01;92.27;95563.00;5065071;28;20250;-70
2021/04/22 02:12:37;;;;;;;13.00;10.63;;;;;;;6.01;92.28;95565.63;5071617;28;20219;-70
2021/04/22 02:15:07;;;;;;;10.93;9.97;;;;;;;6.01;92.00;95569.06;5066111;28;20261;-70
2021/04/22 02:17:34;;;;;;;12.60;11.50;;;;;;;6.15;92.38;95562.41;5057907;28;20760;-70
2021/04/22 02:20:01;;;;;;;12.23;10.97;;;;;;;6.27;91.82;95553.28;5058370;28;20329;-70
2021/04/22 02:22:28;;;;;;;12.93;11.73;;;;;;;6.34;91.38;95556.91;5068479;28;20246;-71
2021/04/22 02:24:55;;;;;;;11.37;10.27;;;;;;;6.55;90.33;95552.00;5065517;28;20340;-70
2021/04/22 02:27:22;;;;;;;11.20;10.23;;;;;;;6.80;88.85;95549.44;5048746;28;20287;-70
2021/04/22 02:29:49;;;;;;;10.70;9.80;;;;;;;6.73;88.70;95551.06;5051367;28;20254;-70
2021/04/22 02:32:17;;;;;;;11.20;10.20;;;;;;;6.64;88.85;95549.41;5054149;28;20246;-70
2021/04/22 02:34:43;;;;;;;9.80;9.00;;;;;;;6.61;88.57;95549.75;5035415;28;20236;-70
2021/04/22 02:37:10;;;;;;;11.10;10.23;;;;;;;6.54;89.20;95555.63;5029018;28;20696;-71
2021/04/22 02:39:37;;;;;;;11.27;10.03;;;;;;;6.55;89.63;95552.00;5060265;28;20342;-71
2021/04/22 02:42:05;;;;;;;9.17;8.33;;;;;;;6.59;89.31;95547.28;5067308;28;20230;-70
2021/04/22 02:44:39;;;;;;;9.80;9.03;;;;;;;6.65;88.51;95554.47;5046027;28;21698;-70
2021/04/22 02:47:06;;;;;;;9.20;8.30;;;;;;;6.72;88.16;95552.03;5066558;28;20242;-69
2021/04/22 02:49:34;;;;;;;9.87;9.07;;;;;;;6.76;87.63;95545.47;5058672;28;20663;-70
2021/04/22 02:52:01;;;;;;;7.93;7.37;;;;;;;6.79;87.05;95542.53;5048291;28;20245;-70
2021/04/22 02:54:28;;;;;;;8.13;7.30;;;;;;;6.89;86.57;95542.38;5022143;28;20565;-70
2021/04/22 02:56:54;;;;;;;8.47;7.87;;;;;;;6.85;86.25;95547.94;5035129;28;20599;-70
2021/04/22 02:59:22;;;;;;;8.37;7.77;;;;;;;6.84;86.44;95545.47;5044490;28;20221;-70
2021/04/22 03:01:49;;;;;;;8.50;7.80;;;;;;;6.80;86.51;95545.00;5045907;28;20224;-71
2021/04/22 03:04:15;;;;;;;8.97;8.07;;;;;;;6.75;87.21;95549.91;5048353;28;20332;-71
2021/04/22 03:06:43;;;;;;;8.33;7.53;;;;;;;6.73;87.14;95543.19;5060191;28;20541;-71
2021/04/22 03:09:10;;;;;;;7.70;7.10;;;;;;;6.69;87.59;95542.72;5034487;28;20732;-70
2021/04/22 03:11:37;;;;;;;8.17;6.33;;;;;;;6.67;87.57;95549.06;5057343;28;20247;-70
2021/04/22 03:14:04;;;;;;;10.07;6.37;;;;;;;6.64;87.94;95560.72;5061425;28;20224;-68
2021/04/22 03:16:31;;;;;;;9.03;8.20;;;;;;;6.57;88.19;95571.03;5064823;28;20690;-71
2021/04/22 03:18:58;;;;;;;12.37;11.27;;;;;;;6.27;89.23;95569.00;5059497;28;20236;-71
2021/04/22 03:21:25;;;;;;;8.77;8.10;;;;;;;6.34;89.65;95575.25;5048234;28;20248;-71
2021/04/22 03:23:53;;;;;;;9.73;9.03;;;;;;;6.29;90.00;95574.88;5042192;28;20221;-71
2021/04/22 03:26:20;;;;;;;10.03;9.30;;;;;;;6.25;90.22;95576.19;5034796;28;20235;-70
2021/04/22 03:28:47;;;;;;;8.57;7.90;;;;;;;6.15;90.41;95591.22;5025922;28;20601;-71
2021/04/22 03:31:14;;;;;;;8.90;8.00;;;;;;;6.05;90.91;95590.53;5035385;28;20802;-70
2021/04/22 03:33:41;;;;;;;9.57;8.73;;;;;;;6.01;91.21;95587.41;5061484;28;20235;-70
2021/04/22 03:36:08;;;;;;;10.67;9.80;;;;;;;6.01;91.41;95586.56;5063338;28;20321;-70
2021/04/22 03:38:35;;;;;;;10.37;9.30;;;;;;;5.96;91.69;95598.38;5062142;28;20231;-70
2021/04/22 03:41:03;;;;;;;10.57;9.67;;;;;;;6.03;91.86;95597.72;5053687;28;20292;-71
2021/04/22 03:43:30;;;;;;;9.33;8.60;;;;;;;5.92;91.77;95591.78;5043093;28;20310;-71
2021/04/22 03:45:57;;;;;;;10.20;9.10;;;;;;;5.84;91.96;95594.31;5030459;28;20268;-70
2021/04/22 03:48:23;;;;;;;9.80;9.00;;;;;;;5.76;91.58;95604.78;5052810;28;20246;-71
2021/04/22 03:50:50;;;;;;;9.80;8.97;;;;;;;5.56;91.25;95606.78;5042101;28;20279;-68
2021/04/22 03:53:17;;;;;;;10.03;9.03;;;;;;;5.49;91.52;95604.94;5061176;28;20697;-68
2021/04/22 03:55:44;;;;;;;8.80;8.10;;;;;;;5.54;91.75;95603.50;5065378;28;20233;-68
2021/04/22 03:58:11;;;;;;;11.47;10.23;;;;;;;5.50;92.07;95611.81;5059521;28;20219;-66
2021/04/22 04:00:38;;;;;;;10.87;9.77;;;;;;;5.39;92.43;95613.72;5042055;28;20311;-65
2021/04/22 04:03:06;;;;;;;7.93;7.23;;;;;;;5.31;92.57;95615.44;5064783;28;20419;-66
2021/04/22 04:05:33;;;;;;;8.10;7.40;;;;;;;5.25;92.37;95619.47;5043360;28;20288;-66
2021/04/22 04:08:00;;;;;;;11.97;10.90;;;;;;;5.17;92.79;95622.03;5047304;28;20266;-68
2021/04/22 04:10:27;;;;;;;9.67;8.70;;;;;;;5.12;92.99;95629.50;5048766;28;22646;-69
2021/04/22 04:12:54;;;;;;;10.00;8.83;;;;;;;4.93;93.32;95624.44;5053823;28;20642;-68
2021/04/22 04:15:21;;;;;;;10.57;9.57;;;;;;;4.84;93.61;95626.97;5063707;28;20721;-68
2021/04/22 04:17:48;;;;;;;10.03;9.07;;;;;;;4.82;94.17;95628.91;5050107;28;20314;-69
2021/04/22 04:20:16;;;;;;;10.37;9.40;;;;;;;4.90;94.05;95628.19;5050750;28;20800;-68
2021/04/22 04:22:46;;;;;;;10.93;9.83;;;;;;;4.91;94.12;95635.03;5047485;28;20703;-68
2021/04/22 04:25:14;;;;;;;10.20;9.43;;;;;;;4.92;94.34;95630.63;5053455;28;20713;-68
2021/04/22 04:27:42;;;;;;;10.63;9.63;;;;;;;4.93;94.19;95634.91;5054059;28;20306;-66
2021/04/22 04:30:15;;;;;;;9.73;8.70;;;;;;;4.93;94.10;95627.03;5051526;28;20249;-65
2021/04/22 04:32:43;;;;;;;9.90;9.10;;;;;;;4.97;94.00;95631.03;5046321;28;20226;-66
2021/04/22 04:35:12;;;;;;;11.30;10.40;;;;;;;4.97;93.83;95636.25;5032916;28;20243;-66
2021/04/22 04:37:39;;;;;;;8.77;8.03;;;;;;;5.00;93.44;95643.78;5041173;28;20223;-66
2021/04/22 04:40:08;;;;;;;10.23;8.87;;;;;;;5.02;93.50;95644.44;5039635;28;20219;-66
2021/04/22 04:42:35;;;;;;;9.83;8.93;;;;;;;5.06;93.15;95640.59;5041614;28;20250;-66
2021/04/22 04:45:03;;;;;;;12.23;9.33;;;;;;;5.09;93.04;95640.28;5037140;28;20659;-66
2021/04/22 04:47:30;;;;;;;9.80;8.97;;;;;;;5.17;93.51;95661.28;5037390;28;20348;-66
2021/04/22 04:49:57;;;;;;;11.30;10.37;;;;;;;5.18;93.03;95655.06;5037262;28;20250;-66
2021/04/22 04:52:24;;;;;;;11.23;9.20;;;;;;;5.22;92.77;95659.03;5045192;28;20257;-66
2021/04/22 04:54:51;;;;;;;12.63;11.47;;;;;;;5.30;92.80;95659.13;5039403;28;20499;-66
2021/04/22 04:57:18;;;;;;;10.70;9.63;;;;;;;5.36;92.61;95658.47;5060541;28;20685;-66
2021/04/22 04:59:45;;;;;;;13.07;9.93;;;;;;;5.46;92.61;95663.63;5049665;28;20218;-66
2021/04/22 05:02:12;;;;;;;8.83;8.13;;;;;;;5.45;92.32;95661.16;5059865;28;20602;-65
2021/04/22 05:04:38;;;;;;;11.30;10.20;;;;;;;5.51;92.38;95671.03;5064676;28;20423;-66
2021/04/22 05:07:06;;;;;;;10.53;9.30;;;;;;;5.53;92.13;95661.22;5063205;28;20807;-66
2021/04/22 05:09:33;;;;;;;14.93;10.47;;;;;;;5.56;91.99;95674.81;5067269;28;20303;-66
2021/04/22 05:12:00;;;;;;;12.53;9.47;;;;;;;5.60;91.91;95673.56;5061910;28;20731;-66
2021/04/22 05:14:27;;;;;;;13.70;7.93;;;;;;;5.76;91.22;95685.94;5067375;28;20242;-66
2021/04/22 05:16:53;;;;;;;10.03;8.80;;;;;;;5.90;90.50;95681.94;5061594;28;20774;-66
2021/04/22 05:19:20;;;;;;;16.77;9.33;;;;;;;5.90;90.23;95682.78;5052740;28;20222;-66
2021/04/22 05:21:47;;;;;;;11.13;10.20;;;;;;;5.95;90.33;95684.94;5064821;28;20331;-66
2021/04/22 05:24:15;;;;;;;9.33;8.53;;;;;;;6.01;90.30;95684.31;5054254;28;20288;-66
2021/04/22 05:26:42;;;;;;;12.93;11.43;;;;;;;6.13;90.22;95677.03;5055462;28;20229;-66
2021/04/22 05:29:08;;;;;;;13.70;12.30;;;;;;;6.22;90.07;95684.78;5064856;28;20699;-66
2021/04/22 05:31:36;;;;;;;18.47;16.40;;;;;;;6.35;89.97;95689.56;5062987;28;20246;-65
2021/04/22 05:34:03;;;;;;;23.83;15.47;;;;;;;6.46;89.64;95691.91;5049932;28;20303;-66
2021/04/22 05:36:30;;;;;;;13.73;12.43;;;;;;;6.56;89.95;95689.97;5027322;28;20251;-66
2021/04/22 05:38:57;;;;;;;14.43;13.13;;;;;;;6.66;90.16;95683.78;5033739;28;20219;-67
2021/04/22 05:41:25;;;;;;;11.63;10.60;;;;;;;6.76;89.74;95698.41;5047666;28;20679;-66
2021/04/22 05:43:52;;;;;;;14.83;11.50;;;;;;;6.84;89.63;95698.44;5046562;28;20233;-66
2021/04/22 05:46:18;;;;;;;12.37;11.27;;;;;;;6.89;89.27;95695.34;5047796;28;20303;-66
2021/04/22 05:48:45;;;;;;;12.07;10.80;;;;;;;6.97;89.33;95698.00;5047759;28;20261;-66
2021/04/22 05:51:17;;;;;;;12.63;11.50;;;;;;;7.03;89.66;95707.81;5064656;28;20247;-66
2021/04/22 05:53:45;;;;;;;14.00;12.70;;;;;;;7.11;89.23;95702.59;5067485;28;20230;-66
2021/04/22 05:56:11;;;;;;;12.67;11.47;;;;;;;7.22;89.47;95711.13;5049268;28;20303;-66
2021/04/22 05:58:39;;;;;;;10.97;9.93;;;;;;;7.34;89.42;95708.06;5063244;28;20754;-66
2021/04/22 06:01:08;;;;;;;13.70;12.30;;;;;;;7.44;88.67;95715.78;5062232;28;20261;-66
2021/04/22 06:03:35;;;;;;;12.47;11.13;;;;;;;7.62;88.25;95713.81;5065325;28;20228;-66
2021/04/22 06:06:02;;;;;;;13.30;12.13;;;;;;;7.69;88.02;95720.06;5049141;28;20241;-66
2021/04/22 06:08:29;;;;;;;16.37;12.07;;;;;;;7.81;86.86;95722.34;5051168;28;20257;-66
2021/04/22 06:10:55;;;;;;;13.63;12.20;;;;;;;8.04;85.84;95718.03;5038393;28;20271;-66
2021/04/22 06:13:22;;;;;;;11.63;10.63;;;;;;;8.22;84.65;95716.03;5072434;28;20222;-66
2021/04/22 06:15:50;;;;;;;12.67;11.47;;;;;;;8.36;83.82;95705.84;5055883;28;20619;-66
2021/04/22 06:18:17;;;;;;;11.27;10.37;;;;;;;8.55;84.14;95715.97;5062364;28;20290;-66
2021/04/22 06:20:44;;;;;;;11.97;10.83;;;;;;;8.70;82.35;95711.66;5040818;28;20316;-66
2021/04/22 06:23:25;;;;;;;13.03;11.87;;;;;;;8.83;80.92;95713.72;5053817;28;20251;-66
2021/04/22 06:25:52;;;;;;;12.23;11.13;;;;;;;8.84;80.75;95725.91;5062877;28;20241;-66
2021/04/22 06:28:19;;;;;;;12.23;11.10;;;;;;;8.72;81.20;95725.47;5071566;28;20449;-66
2021/04/22 06:30:46;;;;;;;13.90;12.73;;;;;;;8.63;81.93;95733.56;5056570;28;20220;-66
2021/04/22 06:33:14;;;;;;;14.07;11.60;;;;;;;8.77;82.44;95736.28;5063875;28;20486;-66
2021/04/22 06:35:41;;;;;;;12.43;11.23;;;;;;;8.65;81.58;95732.38;5067334;28;20321;-66
2021/04/22 06:38:08;;;;;;;12.37;11.13;;;;;;;8.75;82.87;95740.91;5071591;28;20580;-66
2021/04/22 06:40:35;;;;;;;13.47;12.07;;;;;;;8.87;82.30;95743.16;5066244;28;20482;-66
2021/04/22 06:43:08;;;;;;;13.57;12.37;;;;;;;9.03;82.37;95750.97;5048681;28;20229;-66
2021/04/22 06:45:37;;;;;;;11.80;10.80;;;;;;;9.12;81.90;95752.56;5064754;28;20224;-66
2021/04/22 06:48:05;;;;;;;15.80;12.27;;;;;;;8.95;82.77;95753.63;5070742;28;20244;-66
2021/04/22 06:50:33;;;;;;;12.37;11.17;;;;;;;8.99;82.97;95757.59;5058144;28;20793;-66
2021/04/22 06:53:00;;;;;;;13.97;12.67;;;;;;;9.03;81.20;95756.25;5064848;28;20306;-66
2021/04/22 06:55:27;;;;;;;13.63;12.43;;;;;;;9.21;82.15;95758.63;5067515;28;20234;-66
2021/04/22 06:57:58;;;;;;;11.80;10.83;;;;;;;9.53;80.86;95768.16;5062509;28;20229;-66
2021/04/22 07:00:29;;;;;;;12.17;11.07;;;;;;;9.86;79.98;95759.00;5064666;28;20221;-66
2021/04/22 07:02:56;;;;;;;13.67;12.33;;;;;;;9.84;77.51;95758.38;5069538;28;20299;-66
2021/04/22 07:05:23;;;;;;;15.00;13.70;;;;;;;9.95;76.73;95760.59;5065885;28;20226;-67
2021/04/22 07:07:51;;;;;;;12.13;11.03;;;;;;;10.20;76.92;95768.28;5063034;28;20744;-69
2021/04/22 07:10:18;;;;;;;11.97;10.77;;;;;;;9.94;76.07;95772.13;5045760;28;20226;-69
2021/04/22 07:12:48;;;;;;;15.03;13.60;;;;;;;10.07;76.09;95766.28;5062258;28;20253;-69
2021/04/22 07:15:16;;;;;;;12.17;11.10;;;;;;;10.19;75.38;95770.13;5058692;28;20221;-69
2021/04/22 07:17:49;;;;;;;11.50;10.50;;;;;;;10.29;76.59;95775.16;5066659;28;20623;-69
2021/04/22 07:20:19;;;;;;;12.13;10.97;;;;;;;10.32;76.59;95769.53;5050219;28;20662;-69
2021/04/22 07:22:54;;;;;;;12.80;11.67;;;;;;;10.49;77.05;95776.28;5030320;28;20234;-69
2021/04/22 07:25:22;;;;;;;13.33;12.23;;;;;;;10.60;77.03;95776.84;5067430;28;20218;-69
2021/04/22 07:27:49;;;;;;;11.13;10.13;;;;;;;10.68;76.81;95779.38;5058069;28;20790;-69
2021/04/22 07:30:17;;;;;;;12.03;11.03;;;;;;;10.76;76.95;95776.66;5066214;28;20231;-69
2021/04/22 07:32:45;;;;;;;12.07;10.90;;;;;;;10.86;77.29;95773.75;5064147;28;20717;-69
2021/04/22 07:35:14;;;;;;;10.77;9.77;;;;;;;11.01;77.57;95775.38;5047578;28;20213;-68
2021/04/22 07:37:42;;;;;;;11.77;10.73;;;;;;;11.17;77.00;95774.38;5065253;28;20225;-69
2021/04/22 07:40:13;;;;;;;9.73;8.93;;;;;;;11.36;76.27;95775.63;5045842;28;20222;-69
2021/04/22 07:42:40;;;;;;;10.03;9.20;;;;;;;11.60;75.31;95775.25;5061904;28;20614;-69
2021/04/22 07:45:08;;;;;;;11.67;10.70;;;;;;;11.74;74.23;95781.50;5065425;28;20242;-69
2021/04/22 07:47:35;;;;;;;12.37;11.30;;;;;;;11.82;73.52;95786.72;5065670;28;20240;-69
2021/04/22 07:50:05;;;;;;;12.07;11.17;;;;;;;11.83;73.23;95792.81;5051294;28;20309;-69
2021/04/22 07:52:31;;;;;;;13.90;12.47;;;;;;;11.71;72.38;95786.38;5054773;28;20656;-69
2021/04/22 07:54:58;;;;;;;11.40;10.43;;;;;;;11.71;72.52;95786.38;5064644;28;20236;-69
2021/04/22 07:57:26;;;;;;;12.77;11.77;;;;;;;11.66;72.16;95795.66;5063869;28;20735;-69
2021/04/22 07:59:53;;;;;;;11.77;10.77;;;;;;;11.60;72.89;95791.13;5060513;28;20222;-69
2021/04/22 08:02:35;;;;;;;11.97;10.77;;;;;;;11.52;73.92;95788.63;5064827;28;20257;-69
2021/04/22 08:05:03;;;;;;;11.77;10.97;;;;;;;11.56;74.17;95789.88;5051600;28;20656;-69
2021/04/22 08:07:30;;;;;;;11.43;10.20;;;;;;;11.58;73.66;95787.84;5048420;28;20313;-69
2021/04/22 08:09:57;;;;;;;10.03;9.13;;;;;;;11.96;72.92;95790.28;5069414;28;20287;-69
2021/04/22 08:12:24;;;;;;;12.43;11.43;;;;;;;12.20;72.59;95795.22;5068129;28;20230;-69
2021/04/22 08:14:56;;;;;;;10.47;9.53;;;;;;;12.42;70.88;95795.97;5063711;28;20295;-66
2021/04/22 08:17:23;;;;;;;15.97;12.30;;;;;;;12.43;70.06;95791.50;5065012;28;20316;-67
2021/04/22 08:19:50;;;;;;;12.20;11.20;;;;;;;12.62;70.26;95797.97;5059748;28;20281;-66
2021/04/22 08:22:16;;;;;;;12.77;11.57;;;;;;;12.90;69.79;95800.63;5060758;28;20237;-67
2021/04/22 08:24:43;;;;;;;11.83;10.80;;;;;;;13.19;69.73;95805.69;5063888;28;20222;-67
2021/04/22 08:27:10;;;;;;;11.93;10.97;;;;;;;13.58;67.90;95798.91;5062637;28;20236;-67
2021/04/22 08:29:37;;;;;;;11.10;10.13;;;;;;;13.35;65.56;95809.84;5065508;28;20218;-67
2021/04/22 08:32:06;;;;;;;13.20;12.10;;;;;;;13.67;65.48;95813.63;5072795;28;20220;-66
2021/04/22 08:34:33;;;;;;;11.37;10.57;;;;;;;13.87;65.35;95811.84;5047925;28;20229;-67
2021/04/22 08:37:00;;;;;;;12.67;11.63;;;;;;;14.14;65.50;95811.91;5064878;28;20225;-67
2021/04/22 08:39:27;;;;;;;13.40;11.83;;;;;;;13.80;63.74;95821.63;5065770;28;20303;-66
2021/04/22 08:41:54;;;;;;;13.20;11.50;;;;;;;13.93;62.35;95821.66;5064121;28;20764;-67
2021/04/22 08:44:21;;;;;;;9.17;8.33;;;;;;;14.12;63.79;95824.56;5053556;28;20258;-66
2021/04/22 08:46:48;;;;;;;10.73;9.93;;;;;;;14.38;62.68;95824.59;5045246;28;20277;-67
2021/04/22 08:49:16;;;;;;;13.23;11.67;;;;;;;14.87;62.32;95825.22;5053423;28;20434;-66
2021/04/22 08:51:43;;;;;;;11.10;9.87;;;;;;;15.40;60.46;95825.94;5064051;28;20594;-67
2021/04/22 08:54:10;;;;;;;16.33;11.10;;;;;;;15.33;60.06;95833.09;5064591;28;20682;-66
2021/04/22 08:56:38;;;;;;;12.17;11.23;;;;;;;15.84;59.58;95827.03;5063717;28;20249;-66
2021/04/22 08:59:06;;;;;;;10.37;9.67;;;;;;;16.60;59.08;95826.13;5059499;28;20819;-68
2021/04/22 09:01:33;;;;;;;11.90;10.87;;;;;;;16.87;56.86;95824.06;5060906;28;20260;-66
2021/04/22 09:04:05;;;;;;;10.50;9.67;;;;;;;17.09;55.70;95833.28;5058761;28;20221;-67
2021/04/22 09:06:35;;;;;;;13.07;11.97;;;;;;;17.29;55.44;95831.25;5066440;28;20285;-67
2021/04/22 09:09:04;;;;;;;11.07;10.17;;;;;;;17.15;56.06;95843.06;5062536;28;20794;-66
2021/04/22 09:11:39;;;;;;;14.80;10.80;;;;;;;16.88;56.65;95844.34;5050182;28;20604;-67
2021/04/22 09:14:11;;;;;;;10.97;10.10;;;;;;;16.45;56.46;95847.72;5067449;28;20221;-67
2021/04/22 09:16:38;;;;;;;13.67;12.37;;;;;;;15.08;58.03;95847.06;5069622;28;20719;-67
2021/04/22 09:19:09;;;;;;;11.13;10.20;;;;;;;15.12;58.84;95852.78;5069618;28;20230;-67
2021/04/22 09:21:40;;;;;;;11.27;10.00;;;;;;;15.18;60.67;95851.97;5062672;28;20291;-67
2021/04/22 09:24:11;;;;;;;12.57;11.57;;;;;;;14.33;61.57;95853.59;5059305;28;20642;-67
2021/04/22 09:26:44;;;;;;;12.47;11.57;;;;;;;13.43;64.72;95857.38;5059316;28;20214;-67
2021/04/22 09:29:14;;;;;;;13.80;11.30;;;;;;;13.36;65.42;95856.53;5063971;28;20271;-67
2021/04/22 09:31:43;;;;;;;14.47;12.97;;;;;;;12.85;66.01;95866.56;5067446;28;20262;-66
2021/04/22 09:34:12;;;;;;;12.60;11.57;;;;;;;13.71;67.31;95865.25;5060772;28;20749;-66
2021/04/22 09:36:46;;;;;;;14.47;13.33;;;;;;;14.78;63.88;95861.81;5067352;28;20251;-67
2021/04/22 09:39:17;;;;;;;12.97;11.87;;;;;;;14.91;60.36;95861.81;5062369;28;20611;-66
2021/04/22 09:41:45;;;;;;;12.37;11.43;;;;;;;14.60;60.59;95864.25;5076234;28;20292;-66
2021/04/22 09:44:15;;;;;;;12.40;11.33;;;;;;;14.57;61.04;95870.00;5058826;28;20295;-66
2021/04/22 09:46:45;;;;;;;15.60;14.20;;;;;;;14.21;61.80;95871.13;5064378;28;20234;-66
2021/04/22 09:49:14;;;;;;;22.67;12.37;;;;;;;14.31;62.47;95870.75;5072341;28;20272;-67
2021/04/22 09:51:45;;;;;;;13.00;11.77;;;;;;;14.77;61.91;95868.16;5071888;28;21341;-67
2021/04/22 09:54:14;;;;;;;14.83;13.33;;;;;;;15.00;61.44;95868.56;5069499;28;20241;-66
2021/04/22 09:56:47;;;;;;;14.17;12.87;;;;;;;15.21;59.88;95866.69;5060824;28;20308;-66
2021/04/22 09:59:20;;;;;;;14.20;12.37;;;;;;;15.19;60.54;95871.41;5054802;28;20230;-67
2021/04/22 10:01:57;;;;;;;12.73;11.73;;;;;;;15.45;59.68;95873.16;5068591;28;20230;-67
2021/04/22 10:04:31;;;;;;;13.53;12.43;;;;;;;15.27;59.56;95864.03;5065517;28;20241;-67
2021/04/22 10:06:59;;;;;;;14.33;13.23;;;;;;;15.28;60.78;95867.50;5073557;28;20855;-68
2021/04/22 10:09:33;;;;;;;13.27;11.97;;;;;;;15.65;60.19;95868.66;5066843;28;20214;-67
2021/04/22 10:12:01;;;;;;;13.00;11.90;;;;;;;15.86;57.48;95863.03;5057049;28;20234;-67
2021/04/22 10:14:32;;;;;;;13.83;12.37;;;;;;;16.45;57.98;95861.03;5060325;28;20210;-66
2021/04/22 10:16:59;;;;;;;13.57;12.13;;;;;;;16.63;55.14;95855.78;5065689;28;20699;-67
2021/04/22 10:19:26;;;;;;;23.40;16.07;;;;;;;16.92;54.88;95853.56;5058028;28;20210;-67
2021/04/22 10:21:53;;;;;;;16.97;15.53;;;;;;;16.31;54.92;95860.34;5070677;28;20314;-67
2021/04/22 10:24:26;;;;;;;15.37;12.67;;;;;;;16.37;55.35;95856.81;5049111;28;20233;-67
2021/04/22 10:26:59;;;;;;;15.17;13.90;;;;;;;16.82;56.49;95853.22;5059287;28;20218;-66
2021/04/22 10:29:26;;;;;;;14.63;13.47;;;;;;;17.18;54.15;95863.97;5055161;28;20301;-66
2021/04/22 10:31:55;;;;;;;13.87;12.57;;;;;;;17.82;52.46;95856.53;5071662;28;20358;-67
2021/04/22 10:34:24;;;;;;;12.53;11.63;;;;;;;18.51;52.38;95854.38;5058876;28;20324;-67
2021/04/22 10:36:53;;;;;;;14.20;12.97;;;;;;;18.62;51.05;95853.59;5029403;28;20781;-67
2021/04/22 10:39:20;;;;;;;14.93;13.67;;;;;;;18.38;52.18;95852.72;5055508;28;20226;-68
2021/04/22 10:41:51;;;;;;;13.77;12.47;;;;;;;18.84;50.46;95857.38;5068028;28;20254;-67
2021/04/22 10:44:21;;;;;;;14.17;12.77;;;;;;;18.47;49.01;95854.84;5066348;28;20348;-68
2021/04/22 10:46:49;;;;;;;13.87;12.87;;;;;;;17.64;52.34;95854.66;5066883;28;20365;-68
2021/04/22 10:49:16;;;;;;;14.27;12.97;;;;;;;17.54;52.79;95857.84;5070362;28;20218;-67
2021/04/22 10:51:45;;;;;;;14.60;13.33;;;;;;;17.62;54.25;95864.75;5066270;28;20279;-66
2021/04/22 10:54:11;;;;;;;13.93;12.77;;;;;;;17.51;52.11;95863.63;5064216;28;20247;-67
2021/04/22 10:56:38;;;;;;;13.03;11.90;;;;;;;17.59;53.32;95859.84;5064635;28;20630;-67
2021/04/22 10:59:20;;;;;;;11.43;10.47;;;;;;;17.57;52.75;95861.94;5060419;28;20654;-67
2021/04/22 11:01:47;;;;;;;14.50;13.00;;;;;;;16.86;54.17;95855.25;5028206;28;20305;-67
2021/04/22 11:04:15;;;;;;;16.07;14.57;;;;;;;17.17;56.36;95857.00;5058014;28;20218;-66
2021/04/22 11:06:43;;;;;;;15.73;14.43;;;;;;;17.30;53.34;95862.22;5067155;28;20222;-67
2021/04/22 11:09:13;;;;;;;14.63;13.43;;;;;;;17.44;52.99;95857.53;5053785;28;20305;-66
2021/04/22 11:11:53;;;;;;;18.50;16.80;;;;;;;17.29;53.22;95857.13;5064326;28;20236;-67
2021/04/22 11:14:20;;;;;;;17.67;16.23;;;;;;;16.62;52.89;95866.66;5057149;28;20260;-67
2021/04/22 11:16:52;;;;;;;20.50;17.23;;;;;;;16.39;54.09;95859.25;5049344;28;20230;-67
2021/04/22 11:19:21;;;;;;;17.60;16.00;;;;;;;16.60;54.61;95861.56;5046219;28;21331;-67
2021/04/22 11:21:51;;;;;;;20.43;18.60;;;;;;;16.08;56.29;95863.53;5055041;28;20256;-67
2021/04/22 11:24:28;;;;;;;18.47;16.87;;;;;;;16.19;54.24;95849.56;5060214;28;20226;-66
2021/04/22 11:27:03;;;;;;;18.37;16.50;;;;;;;14.96;55.02;95862.00;5066294;28;20219;-64
2021/04/22 11:29:43;;;;;;;19.53;17.73;;;;;;;14.67;55.74;95865.09;5064026;28;20226;-67
2021/04/22 11:32:26;;;;;;;21.60;19.50;;;;;;;14.55;58.05;95850.78;5071237;28;20271;-67